Terminal Aerodrome Forecast
Issued by NWS

Home | Current Version | Previous Version | Text Only | Print | Product List | Glossary On
Versions: 1 2 3 4 5 6 7 8 9 10 11 12
720
FTUS44 KSJT 261120
TAFJCT
TAF
KJCT 261120Z 2612/2712 29010KT P6SM SCT250
     FM261500 31014G22KT P6SM SCT250
     FM270100 VRB05KT P6SM SCT250=

USA.gov is the U.S. government's official web portal to all federal, state and local government web resources and services.